CheckWX is a tool to help pilots better visualize weather data.  It is not intended as a substitute for an official pre-flight weather briefing.

21:39:00 UTC

KAZO TAF
Kalamazoo / Battle Creek International Airport
Kalamazoo, Michigan, USA
KAZO 202106Z 2021/2118 19010G20KT 2SM -SHRASN OVC008 FM210000 19008KT 4SM SHRA BR OVC008 FM210600 VRB03KT 3SM BR OVC005 FM211200 02005KT P6SM BKN010 FM211500 35006KT P6SM BKN015

Mar-20@
21:00 UTC

Mar-20 @ 21:00 UTC

Mar-21@
00:00 UTC

Mar-21 @ 00:00 UTC

KAZO 202106Z 2021/2118 19010G20KT 2SM -SHRASN OVC008
Wind
  • 190° at 10 KTS
  • {Gusting to 20 KTS
Conditions
Light Rain, Light Snow
Cloud Levels
  • Overcast at 800' AGL

Mar-21@
00:00 UTC

Mar-21 @ 00:00 UTC

Mar-21@
06:00 UTC

Mar-21 @ 06:00 UTC

FM210000 19008KT 4SM SHRA BR OVC008

From

From Standard forecast or significant change

Wind
  • 190° at 8 KTS
Conditions
Rain, Mist
Cloud Levels
  • Overcast at 800' AGL

Mar-21@
06:00 UTC

Mar-21 @ 06:00 UTC

Mar-21@
12:00 UTC

Mar-21 @ 12:00 UTC

FM210600 VRB03KT 3SM BR OVC005

From

From Standard forecast or significant change

Wind
  • Variable at 3 KTS
Conditions
Mist
Cloud Levels
  • Overcast at 500' AGL

Mar-21@
12:00 UTC

Mar-21 @ 12:00 UTC

Mar-21@
15:00 UTC

Mar-21 @ 15:00 UTC

FM211200 02005KT P6SM BKN010

From

From Standard forecast or significant change

Wind
  • 020° at 5 KTS
Cloud Levels
  • Broken at 1,000' AGL

Mar-21@
15:00 UTC

Mar-21 @ 15:00 UTC

Mar-21@
18:00 UTC

Mar-21 @ 18:00 UTC

FM211500 35006KT P6SM BKN015

From

From Standard forecast or significant change

Wind
  • 350° at 6 KTS
Cloud Levels
  • Broken at 1,500' AGL